sensor_id;sensor_type;location;lat;lon;timestamp;temperature;humidity
74101;DHT22;62462;52.530;21.682;2023-12-29T00:00:35;8.30;77.00
74101;DHT22;62462;52.530;21.682;2023-12-29T00:03:00;8.40;76.90
74101;DHT22;62462;52.530;21.682;2023-12-29T00:05:26;8.40;76.80
74101;DHT22;62462;52.530;21.682;2023-12-29T00:07:53;8.40;77.00
74101;DHT22;62462;52.530;21.682;2023-12-29T00:10:18;8.40;77.00
74101;DHT22;62462;52.530;21.682;2023-12-29T00:12:44;8.40;76.80
74101;DHT22;62462;52.530;21.682;2023-12-29T00:15:10;8.40;77.00
74101;DHT22;62462;52.530;21.682;2023-12-29T00:17:36;8.40;76.90
74101;DHT22;62462;52.530;21.682;2023-12-29T00:20:06;8.40;76.80
74101;DHT22;62462;52.530;21.682;2023-12-29T00:22:33;8.40;76.90
74101;DHT22;62462;52.530;21.682;2023-12-29T00:24:59;8.30;76.70
74101;DHT22;62462;52.530;21.682;2023-12-29T00:27:25;8.40;77.00
74101;DHT22;62462;52.530;21.682;2023-12-29T00:29:51;8.40;76.90
74101;DHT22;62462;52.530;21.682;2023-12-29T00:32:16;8.40;76.90
74101;DHT22;62462;52.530;21.682;2023-12-29T00:34:42;8.40;76.60
74101;DHT22;62462;52.530;21.682;2023-12-29T00:37:08;8.40;76.50
74101;DHT22;62462;52.530;21.682;2023-12-29T00:39:34;8.40;76.80
74101;DHT22;62462;52.530;21.682;2023-12-29T00:42:04;8.40;77.10
74101;DHT22;62462;52.530;21.682;2023-12-29T00:44:32;8.40;77.20
74101;DHT22;62462;52.530;21.682;2023-12-29T00:46:59;8.40;77.20
74101;DHT22;62462;52.530;21.682;2023-12-29T00:49:25;8.40;76.90
74101;DHT22;62462;52.530;21.682;2023-12-29T00:51:51;8.40;77.00
74101;DHT22;62462;52.530;21.682;2023-12-29T00:54:17;8.40;77.00
74101;DHT22;62462;52.530;21.682;2023-12-29T00:56:48;8.50;76.90
74101;DHT22;62462;52.530;21.682;2023-12-29T00:59:14;8.50;76.90
74101;DHT22;62462;52.530;21.682;2023-12-29T01:01:40;8.50;76.60
74101;DHT22;62462;52.530;21.682;2023-12-29T01:04:05;8.40;76.80
74101;DHT22;62462;52.530;21.682;2023-12-29T01:06:31;8.50;76.90
74101;DHT22;62462;52.530;21.682;2023-12-29T01:08:57;8.40;76.90
74101;DHT22;62462;52.530;21.682;2023-12-29T01:11:22;8.40;77.00
74101;DHT22;62462;52.530;21.682;2023-12-29T01:13:48;8.50;77.20
74101;DHT22;62462;52.530;21.682;2023-12-29T01:16:14;8.40;77.00
74101;DHT22;62462;52.530;21.682;2023-12-29T01:18:39;8.30;77.20
74101;DHT22;62462;52.530;21.682;2023-12-29T01:21:05;8.40;77.40
74101;DHT22;62462;52.530;21.682;2023-12-29T01:23:31;8.40;77.20
74101;DHT22;62462;52.530;21.682;2023-12-29T01:25:56;8.40;77.30
74101;DHT22;62462;52.530;21.682;2023-12-29T01:28:22;8.40;77.00
74101;DHT22;62462;52.530;21.682;2023-12-29T01:30:47;8.40;77.10
74101;DHT22;62462;52.530;21.682;2023-12-29T01:33:13;8.40;76.60
74101;DHT22;62462;52.530;21.682;2023-12-29T01:35:39;8.40;77.00
74101;DHT22;62462;52.530;21.682;2023-12-29T01:38:05;8.40;76.70
74101;DHT22;62462;52.530;21.682;2023-12-29T01:40:30;8.40;76.40
74101;DHT22;62462;52.530;21.682;2023-12-29T01:42:56;8.50;76.50
74101;DHT22;62462;52.530;21.682;2023-12-29T01:45:23;8.50;76.10
74101;DHT22;62462;52.530;21.682;2023-12-29T01:47:50;8.50;76.10
74101;DHT22;62462;52.530;21.682;2023-12-29T01:50:18;8.50;75.60
74101;DHT22;62462;52.530;21.682;2023-12-29T01:52:45;8.50;75.50
74101;DHT22;62462;52.530;21.682;2023-12-29T01:55:15;8.40;75.50
74101;DHT22;62462;52.530;21.682;2023-12-29T01:57:43;8.40;75.80
74101;DHT22;62462;52.530;21.682;2023-12-29T02:00:10;8.40;75.50
74101;DHT22;62462;52.530;21.682;2023-12-29T02:02:38;8.40;75.70
74101;DHT22;62462;52.530;21.682;2023-12-29T02:05:05;8.30;75.20
74101;DHT22;62462;52.530;21.682;2023-12-29T02:07:32;8.30;75.60
74101;DHT22;62462;52.530;21.682;2023-12-29T02:09:58;8.30;75.50
74101;DHT22;62462;52.530;21.682;2023-12-29T02:12:25;8.20;75.50
74101;DHT22;62462;52.530;21.682;2023-12-29T02:14:51;8.20;75.80
74101;DHT22;62462;52.530;21.682;2023-12-29T02:17:25;8.20;75.90
74101;DHT22;62462;52.530;21.682;2023-12-29T02:19:52;8.10;75.80
74101;DHT22;62462;52.530;21.682;2023-12-29T02:22:18;8.10;75.70
74101;DHT22;62462;52.530;21.682;2023-12-29T02:24:48;8.10;75.80
74101;DHT22;62462;52.530;21.682;2023-12-29T02:27:31;8.00;75.50
74101;DHT22;62462;52.530;21.682;2023-12-29T02:30:10;8.00;75.60
74101;DHT22;62462;52.530;21.682;2023-12-29T02:32:40;8.00;75.50
74101;DHT22;62462;52.530;21.682;2023-12-29T02:35:10;8.00;75.60
74101;DHT22;62462;52.530;21.682;2023-12-29T02:37:37;7.90;75.40
74101;DHT22;62462;52.530;21.682;2023-12-29T02:40:04;7.90;75.60
74101;DHT22;62462;52.530;21.682;2023-12-29T02:42:30;7.80;76.00
74101;DHT22;62462;52.530;21.682;2023-12-29T02:44:56;7.70;76.30
74101;DHT22;62462;52.530;21.682;2023-12-29T02:47:22;7.70;76.30
74101;DHT22;62462;52.530;21.682;2023-12-29T02:49:48;7.70;77.60
74101;DHT22;62462;52.530;21.682;2023-12-29T02:52:15;7.70;76.80
74101;DHT22;62462;52.530;21.682;2023-12-29T02:54:41;7.60;76.50
74101;DHT22;62462;52.530;21.682;2023-12-29T02:57:06;7.60;76.70
74101;DHT22;62462;52.530;21.682;2023-12-29T02:59:32;7.60;76.70
74101;DHT22;62462;52.530;21.682;2023-12-29T03:01:58;7.50;76.90
74101;DHT22;62462;52.530;21.682;2023-12-29T03:04:23;7.50;77.00
74101;DHT22;62462;52.530;21.682;2023-12-29T03:06:49;7.50;77.00
74101;DHT22;62462;52.530;21.682;2023-12-29T03:09:14;7.40;77.20
74101;DHT22;62462;52.530;21.682;2023-12-29T03:11:40;7.30;77.30
74101;DHT22;62462;52.530;21.682;2023-12-29T03:14:06;7.30;77.70
74101;DHT22;62462;52.530;21.682;2023-12-29T03:16:32;7.20;77.90
74101;DHT22;62462;52.530;21.682;2023-12-29T03:18:57;7.30;78.00
74101;DHT22;62462;52.530;21.682;2023-12-29T03:21:23;7.20;77.90
74101;DHT22;62462;52.530;21.682;2023-12-29T03:23:49;7.20;77.90
74101;DHT22;62462;52.530;21.682;2023-12-29T03:26:15;7.20;77.90
74101;DHT22;62462;52.530;21.682;2023-12-29T03:28:40;7.20;78.00
74101;DHT22;62462;52.530;21.682;2023-12-29T03:31:06;7.20;78.20
74101;DHT22;62462;52.530;21.682;2023-12-29T03:33:32;7.10;78.20
74101;DHT22;62462;52.530;21.682;2023-12-29T03:35:57;7.10;78.20
74101;DHT22;62462;52.530;21.682;2023-12-29T03:38:23;7.10;78.10
74101;DHT22;62462;52.530;21.682;2023-12-29T03:40:49;7.10;78.30
74101;DHT22;62462;52.530;21.682;2023-12-29T03:43:14;7.10;78.30
74101;DHT22;62462;52.530;21.682;2023-12-29T03:45:40;7.10;78.40
74101;DHT22;62462;52.530;21.682;2023-12-29T03:48:06;7.10;78.50
74101;DHT22;62462;52.530;21.682;2023-12-29T03:50:34;7.00;78.40
74101;DHT22;62462;52.530;21.682;2023-12-29T03:52:59;7.00;78.60
74101;DHT22;62462;52.530;21.682;2023-12-29T03:55:25;6.90;78.90
74101;DHT22;62462;52.530;21.682;2023-12-29T03:57:51;6.90;79.00
74101;DHT22;62462;52.530;21.682;2023-12-29T04:00:17;6.80;79.20
74101;DHT22;62462;52.530;21.682;2023-12-29T04:02:42;6.80;79.40
74101;DHT22;62462;52.530;21.682;2023-12-29T04:05:11;6.80;79.10
74101;DHT22;62462;52.530;21.682;2023-12-29T04:07:39;6.80;79.40
74101;DHT22;62462;52.530;21.682;2023-12-29T04:10:06;6.80;79.70
74101;DHT22;62462;52.530;21.682;2023-12-29T04:12:32;6.80;79.70
74101;DHT22;62462;52.530;21.682;2023-12-29T04:14:58;6.90;79.40
74101;DHT22;62462;52.530;21.682;2023-12-29T04:17:24;6.90;79.10
74101;DHT22;62462;52.530;21.682;2023-12-29T04:19:49;6.90;79.10
74101;DHT22;62462;52.530;21.682;2023-12-29T04:22:15;6.90;78.70
74101;DHT22;62462;52.530;21.682;2023-12-29T04:24:41;6.90;79.20
74101;DHT22;62462;52.530;21.682;2023-12-29T04:27:06;6.80;79.40
74101;DHT22;62462;52.530;21.682;2023-12-29T04:29:32;6.80;79.70
74101;DHT22;62462;52.530;21.682;2023-12-29T04:31:58;6.80;80.00
74101;DHT22;62462;52.530;21.682;2023-12-29T04:34:23;6.70;80.30
74101;DHT22;62462;52.530;21.682;2023-12-29T04:36:49;6.70;80.40
74101;DHT22;62462;52.530;21.682;2023-12-29T04:39:15;6.80;80.20
74101;DHT22;62462;52.530;21.682;2023-12-29T04:41:40;6.70;80.30
74101;DHT22;62462;52.530;21.682;2023-12-29T04:44:06;6.80;80.20
74101;DHT22;62462;52.530;21.682;2023-12-29T04:46:32;6.80;80.00
74101;DHT22;62462;52.530;21.682;2023-12-29T04:48:57;6.80;80.10
74101;DHT22;62462;52.530;21.682;2023-12-29T04:51:23;6.80;80.00
74101;DHT22;62462;52.530;21.682;2023-12-29T04:53:49;6.80;80.10
74101;DHT22;62462;52.530;21.682;2023-12-29T04:56:14;6.80;80.00
74101;DHT22;62462;52.530;21.682;2023-12-29T04:58:40;6.80;80.10
74101;DHT22;62462;52.530;21.682;2023-12-29T05:01:06;6.70;80.30
74101;DHT22;62462;52.530;21.682;2023-12-29T05:03:33;6.70;80.50
74101;DHT22;62462;52.530;21.682;2023-12-29T05:05:59;6.70;80.60
74101;DHT22;62462;52.530;21.682;2023-12-29T05:08:25;6.70;81.30
74101;DHT22;62462;52.530;21.682;2023-12-29T05:10:51;6.70;81.30
74101;DHT22;62462;52.530;21.682;2023-12-29T05:13:16;6.70;81.40
74101;DHT22;62462;52.530;21.682;2023-12-29T05:15:42;6.70;81.50
74101;DHT22;62462;52.530;21.682;2023-12-29T05:18:07;6.60;81.60
74101;DHT22;62462;52.530;21.682;2023-12-29T05:20:33;6.70;81.60
74101;DHT22;62462;52.530;21.682;2023-12-29T05:22:59;6.70;81.50
74101;DHT22;62462;52.530;21.682;2023-12-29T05:25:25;6.70;81.60
74101;DHT22;62462;52.530;21.682;2023-12-29T05:27:50;6.70;81.80
74101;DHT22;62462;52.530;21.682;2023-12-29T05:30:16;6.70;82.10
74101;DHT22;62462;52.530;21.682;2023-12-29T05:32:42;6.70;82.30
74101;DHT22;62462;52.530;21.682;2023-12-29T05:35:07;6.70;82.40
74101;DHT22;62462;52.530;21.682;2023-12-29T05:37:33;6.70;82.60
74101;DHT22;62462;52.530;21.682;2023-12-29T05:39:59;6.70;82.70
74101;DHT22;62462;52.530;21.682;2023-12-29T05:42:24;6.70;82.60
74101;DHT22;62462;52.530;21.682;2023-12-29T05:44:50;6.70;83.00
74101;DHT22;62462;52.530;21.682;2023-12-29T05:47:17;6.70;83.10
74101;DHT22;62462;52.530;21.682;2023-12-29T05:49:43;6.70;82.70
74101;DHT22;62462;52.530;21.682;2023-12-29T05:52:09;6.80;83.00
74101;DHT22;62462;52.530;21.682;2023-12-29T05:54:35;6.70;83.10
74101;DHT22;62462;52.530;21.682;2023-12-29T05:57:01;6.70;83.10
74101;DHT22;62462;52.530;21.682;2023-12-29T05:59:27;6.70;84.20
74101;DHT22;62462;52.530;21.682;2023-12-29T06:01:53;6.70;83.30
74101;DHT22;62462;52.530;21.682;2023-12-29T06:04:18;6.70;83.40
74101;DHT22;62462;52.530;21.682;2023-12-29T06:06:44;6.70;83.40
74101;DHT22;62462;52.530;21.682;2023-12-29T06:09:11;6.70;83.20
74101;DHT22;62462;52.530;21.682;2023-12-29T06:11:37;6.80;83.20
74101;DHT22;62462;52.530;21.682;2023-12-29T06:14:03;6.80;83.00
74101;DHT22;62462;52.530;21.682;2023-12-29T06:16:29;6.80;83.00
74101;DHT22;62462;52.530;21.682;2023-12-29T06:18:56;6.80;82.90
74101;DHT22;62462;52.530;21.682;2023-12-29T06:21:22;6.80;82.60
74101;DHT22;62462;52.530;21.682;2023-12-29T06:23:48;6.80;82.80
74101;DHT22;62462;52.530;21.682;2023-12-29T06:26:17;6.80;83.00
74101;DHT22;62462;52.530;21.682;2023-12-29T06:28:44;6.80;83.10
74101;DHT22;62462;52.530;21.682;2023-12-29T06:31:10;6.80;83.30
74101;DHT22;62462;52.530;21.682;2023-12-29T06:33:36;6.80;83.40
74101;DHT22;62462;52.530;21.682;2023-12-29T06:36:02;6.80;83.70
74101;DHT22;62462;52.530;21.682;2023-12-29T06:38:28;6.80;83.40
74101;DHT22;62462;52.530;21.682;2023-12-29T06:40:53;6.80;83.50
74101;DHT22;62462;52.530;21.682;2023-12-29T06:43:19;6.80;83.50
74101;DHT22;62462;52.530;21.682;2023-12-29T06:45:45;6.80;83.30
74101;DHT22;62462;52.530;21.682;2023-12-29T06:48:10;6.90;83.20
74101;DHT22;62462;52.530;21.682;2023-12-29T06:50:36;6.90;82.90
74101;DHT22;62462;52.530;21.682;2023-12-29T06:53:05;6.90;82.80
74101;DHT22;62462;52.530;21.682;2023-12-29T06:55:31;6.90;82.70
74101;DHT22;62462;52.530;21.682;2023-12-29T06:57:56;6.90;82.70
74101;DHT22;62462;52.530;21.682;2023-12-29T07:00:22;6.90;82.80
74101;DHT22;62462;52.530;21.682;2023-12-29T07:02:48;6.90;83.00
74101;DHT22;62462;52.530;21.682;2023-12-29T07:05:14;6.90;82.70
74101;DHT22;62462;52.530;21.682;2023-12-29T07:07:39;7.00;83.10
74101;DHT22;62462;52.530;21.682;2023-12-29T07:10:05;7.00;83.00
74101;DHT22;62462;52.530;21.682;2023-12-29T07:12:31;7.00;82.70
74101;DHT22;62462;52.530;21.682;2023-12-29T07:14:57;7.00;82.60
74101;DHT22;62462;52.530;21.682;2023-12-29T07:17:23;7.10;82.60
74101;DHT22;62462;52.530;21.682;2023-12-29T07:19:49;7.00;82.50
74101;DHT22;62462;52.530;21.682;2023-12-29T07:22:15;7.00;82.50
74101;DHT22;62462;52.530;21.682;2023-12-29T07:24:41;7.00;82.80
74101;DHT22;62462;52.530;21.682;2023-12-29T07:27:06;7.00;83.00
74101;DHT22;62462;52.530;21.682;2023-12-29T07:29:33;7.00;82.90
74101;DHT22;62462;52.530;21.682;2023-12-29T07:31:59;7.00;82.90
74101;DHT22;62462;52.530;21.682;2023-12-29T07:34:25;7.10;83.10
74101;DHT22;62462;52.530;21.682;2023-12-29T07:36:50;7.10;83.00
74101;DHT22;62462;52.530;21.682;2023-12-29T07:39:17;7.20;83.00
74101;DHT22;62462;52.530;21.682;2023-12-29T07:41:43;7.20;82.60
74101;DHT22;62462;52.530;21.682;2023-12-29T07:44:12;7.20;82.70
74101;DHT22;62462;52.530;21.682;2023-12-29T07:46:40;7.20;83.00
74101;DHT22;62462;52.530;21.682;2023-12-29T07:49:06;7.20;82.90
74101;DHT22;62462;52.530;21.682;2023-12-29T07:51:31;7.20;82.70
74101;DHT22;62462;52.530;21.682;2023-12-29T07:53:58;7.20;82.70
74101;DHT22;62462;52.530;21.682;2023-12-29T07:56:23;7.20;82.80
74101;DHT22;62462;52.530;21.682;2023-12-29T07:58:49;7.30;82.60
74101;DHT22;62462;52.530;21.682;2023-12-29T08:01:15;7.30;82.50
74101;DHT22;62462;52.530;21.682;2023-12-29T08:03:40;7.30;82.60
74101;DHT22;62462;52.530;21.682;2023-12-29T08:06:06;7.30;82.80
74101;DHT22;62462;52.530;21.682;2023-12-29T08:08:32;7.40;83.00
74101;DHT22;62462;52.530;21.682;2023-12-29T08:10:57;7.40;83.00
74101;DHT22;62462;52.530;21.682;2023-12-29T08:13:23;7.50;82.20
74101;DHT22;62462;52.530;21.682;2023-12-29T08:15:49;7.60;82.00
74101;DHT22;62462;52.530;21.682;2023-12-29T08:18:14;7.50;82.00
74101;DHT22;62462;52.530;21.682;2023-12-29T08:20:40;7.60;82.10
74101;DHT22;62462;52.530;21.682;2023-12-29T08:23:06;7.60;82.00
74101;DHT22;62462;52.530;21.682;2023-12-29T08:25:31;7.60;81.60
74101;DHT22;62462;52.530;21.682;2023-12-29T08:27:58;7.60;81.90
74101;DHT22;62462;52.530;21.682;2023-12-29T08:30:24;7.50;82.20
74101;DHT22;62462;52.530;21.682;2023-12-29T08:32:50;7.50;82.50
74101;DHT22;62462;52.530;21.682;2023-12-29T08:35:15;7.60;82.60
74101;DHT22;62462;52.530;21.682;2023-12-29T08:37:41;7.60;82.40
74101;DHT22;62462;52.530;21.682;2023-12-29T08:40:07;7.60;82.40
74101;DHT22;62462;52.530;21.682;2023-12-29T08:42:33;7.70;82.30
74101;DHT22;62462;52.530;21.682;2023-12-29T08:44:59;7.70;81.90
74101;DHT22;62462;52.530;21.682;2023-12-29T08:47:25;7.80;81.60
74101;DHT22;62462;52.530;21.682;2023-12-29T08:49:51;7.90;81.20
74101;DHT22;62462;52.530;21.682;2023-12-29T08:52:20;8.00;81.10
74101;DHT22;62462;52.530;21.682;2023-12-29T08:54:45;8.10;80.30
74101;DHT22;62462;52.530;21.682;2023-12-29T08:57:11;8.20;79.70
74101;DHT22;62462;52.530;21.682;2023-12-29T08:59:37;8.30;79.10
74101;DHT22;62462;52.530;21.682;2023-12-29T09:02:03;8.50;79.30
74101;DHT22;62462;52.530;21.682;2023-12-29T09:04:29;8.60;77.90
74101;DHT22;62462;52.530;21.682;2023-12-29T09:06:54;8.80;77.70
74101;DHT22;62462;52.530;21.682;2023-12-29T09:09:20;8.90;76.50
74101;DHT22;62462;52.530;21.682;2023-12-29T09:11:46;9.00;76.10
74101;DHT22;62462;52.530;21.682;2023-12-29T09:14:12;9.00;75.40
74101;DHT22;62462;52.530;21.682;2023-12-29T09:16:38;8.90;76.10
74101;DHT22;62462;52.530;21.682;2023-12-29T09:19:05;9.10;76.20
74101;DHT22;62462;52.530;21.682;2023-12-29T09:21:31;9.10;75.70
74101;DHT22;62462;52.530;21.682;2023-12-29T09:23:57;9.20;75.00
74101;DHT22;62462;52.530;21.682;2023-12-29T09:26:24;9.30;74.30
74101;DHT22;62462;52.530;21.682;2023-12-29T09:28:49;9.30;73.90
74101;DHT22;62462;52.530;21.682;2023-12-29T09:31:15;9.40;74.20
74101;DHT22;62462;52.530;21.682;2023-12-29T09:33:41;9.50;73.50
74101;DHT22;62462;52.530;21.682;2023-12-29T09:36:07;9.50;73.00
74101;DHT22;62462;52.530;21.682;2023-12-29T09:38:33;9.50;73.50
74101;DHT22;62462;52.530;21.682;2023-12-29T09:41:04;9.50;73.60
74101;DHT22;62462;52.530;21.682;2023-12-29T09:43:33;9.50;73.90
74101;DHT22;62462;52.530;21.682;2023-12-29T09:45:59;9.60;73.10
74101;DHT22;62462;52.530;21.682;2023-12-29T09:48:26;9.60;72.70
74101;DHT22;62462;52.530;21.682;2023-12-29T09:50:53;9.70;72.70
74101;DHT22;62462;52.530;21.682;2023-12-29T09:53:20;9.80;72.20
74101;DHT22;62462;52.530;21.682;2023-12-29T09:55:49;9.90;72.20
74101;DHT22;62462;52.530;21.682;2023-12-29T09:58:15;10.00;71.50
74101;DHT22;62462;52.530;21.682;2023-12-29T10:00:44;10.20;71.30
74101;DHT22;62462;52.530;21.682;2023-12-29T10:03:12;10.20;70.10
74101;DHT22;62462;52.530;21.682;2023-12-29T10:05:37;10.30;70.00
74101;DHT22;62462;52.530;21.682;2023-12-29T10:08:05;10.40;69.30
74101;DHT22;62462;52.530;21.682;2023-12-29T10:10:33;10.40;69.90
74101;DHT22;62462;52.530;21.682;2023-12-29T10:13:01;10.60;70.20
74101;DHT22;62462;52.530;21.682;2023-12-29T10:15:32;10.60;68.70
74101;DHT22;62462;52.530;21.682;2023-12-29T10:21:27;10.80;68.30
74101;DHT22;62462;52.530;21.682;2023-12-29T10:23:54;10.80;68.00
74101;DHT22;62462;52.530;21.682;2023-12-29T10:26:23;10.90;68.40
74101;DHT22;62462;52.530;21.682;2023-12-29T10:28:49;11.00;67.40
74101;DHT22;62462;52.530;21.682;2023-12-29T10:31:15;11.10;67.30
74101;DHT22;62462;52.530;21.682;2023-12-29T10:33:41;11.00;67.00
74101;DHT22;62462;52.530;21.682;2023-12-29T10:36:07;10.90;67.80
74101;DHT22;62462;52.530;21.682;2023-12-29T10:38:34;10.60;68.30
74101;DHT22;62462;52.530;21.682;2023-12-29T10:41:17;10.50;69.40
74101;DHT22;62462;52.530;21.682;2023-12-29T10:43:44;10.30;69.60
74101;DHT22;62462;52.530;21.682;2023-12-29T10:46:12;10.20;70.60
74101;DHT22;62462;52.530;21.682;2023-12-29T10:48:38;10.20;70.90
74101;DHT22;62462;52.530;21.682;2023-12-29T10:51:05;10.20;70.80
74101;DHT22;62462;52.530;21.682;2023-12-29T10:53:32;10.10;71.00
74101;DHT22;62462;52.530;21.682;2023-12-29T10:55:58;10.20;71.60
74101;DHT22;62462;52.530;21.682;2023-12-29T10:58:30;10.30;71.00
74101;DHT22;62462;52.530;21.682;2023-12-29T11:00:58;10.40;70.30
74101;DHT22;62462;52.530;21.682;2023-12-29T11:03:25;10.40;70.50
74101;DHT22;62462;52.530;21.682;2023-12-29T11:05:58;10.60;70.00
74101;DHT22;62462;52.530;21.682;2023-12-29T11:08:27;10.70;68.60
74101;DHT22;62462;52.530;21.682;2023-12-29T11:10:54;10.70;68.60
74101;DHT22;62462;52.530;21.682;2023-12-29T11:13:20;10.80;68.70
74101;DHT22;62462;52.530;21.682;2023-12-29T11:15:47;10.90;68.60
74101;DHT22;62462;52.530;21.682;2023-12-29T11:18:15;10.90;68.40
74101;DHT22;62462;52.530;21.682;2023-12-29T11:20:45;11.10;68.60
74101;DHT22;62462;52.530;21.682;2023-12-29T11:23:12;11.20;67.80
74101;DHT22;62462;52.530;21.682;2023-12-29T11:25:45;11.30;67.00
74101;DHT22;62462;52.530;21.682;2023-12-29T11:28:14;11.40;67.20
74101;DHT22;62462;52.530;21.682;2023-12-29T11:30:40;11.40;66.70
74101;DHT22;62462;52.530;21.682;2023-12-29T11:33:10;11.40;66.60
74101;DHT22;62462;52.530;21.682;2023-12-29T11:35:51;11.30;66.80
74101;DHT22;62462;52.530;21.682;2023-12-29T11:43:43;11.00;68.20
74101;DHT22;62462;52.530;21.682;2023-12-29T11:46:35;10.90;68.90
74101;DHT22;62462;52.530;21.682;2023-12-29T11:49:01;10.90;69.50
74101;DHT22;62462;52.530;21.682;2023-12-29T11:51:39;10.90;69.40
74101;DHT22;62462;52.530;21.682;2023-12-29T11:54:06;10.80;69.70
74101;DHT22;62462;52.530;21.682;2023-12-29T11:56:37;10.70;70.20
74101;DHT22;62462;52.530;21.682;2023-12-29T11:59:23;10.60;70.70
74101;DHT22;62462;52.530;21.682;2023-12-29T12:01:58;10.60;70.90
74101;DHT22;62462;52.530;21.682;2023-12-29T12:04:42;10.60;71.20
74101;DHT22;62462;52.530;21.682;2023-12-29T12:09:48;10.70;71.30
74101;DHT22;62462;52.530;21.682;2023-12-29T12:12:40;10.70;70.90
74101;DHT22;62462;52.530;21.682;2023-12-29T12:18:02;10.60;71.10
74101;DHT22;62462;52.530;21.682;2023-12-29T12:20:35;10.50;71.30
74101;DHT22;62462;52.530;21.682;2023-12-29T12:23:02;10.50;71.50
74101;DHT22;62462;52.530;21.682;2023-12-29T12:25:31;10.60;71.80
74101;DHT22;62462;52.530;21.682;2023-12-29T12:28:01;10.60;71.20
74101;DHT22;62462;52.530;21.682;2023-12-29T12:30:30;10.60;71.50
74101;DHT22;62462;52.530;21.682;2023-12-29T12:33:03;10.60;71.50
74101;DHT22;62462;52.530;21.682;2023-12-29T12:35:30;10.60;71.20
74101;DHT22;62462;52.530;21.682;2023-12-29T12:38:15;10.60;71.80
74101;DHT22;62462;52.530;21.682;2023-12-29T12:40:47;10.70;71.40
74101;DHT22;62462;52.530;21.682;2023-12-29T12:43:14;10.80;71.60
74101;DHT22;62462;52.530;21.682;2023-12-29T12:45:48;10.80;70.80
74101;DHT22;62462;52.530;21.682;2023-12-29T12:48:19;10.80;70.10
74101;DHT22;62462;52.530;21.682;2023-12-29T12:50:46;10.70;71.00
74101;DHT22;62462;52.530;21.682;2023-12-29T12:53:13;10.60;71.00
74101;DHT22;62462;52.530;21.682;2023-12-29T12:55:50;10.70;71.10
74101;DHT22;62462;52.530;21.682;2023-12-29T12:58:17;10.70;71.10
74101;DHT22;62462;52.530;21.682;2023-12-29T13:00:45;10.70;71.30
74101;DHT22;62462;52.530;21.682;2023-12-29T13:03:11;10.70;71.40
74101;DHT22;62462;52.530;21.682;2023-12-29T13:05:37;10.70;71.00
74101;DHT22;62462;52.530;21.682;2023-12-29T13:08:04;10.70;71.90
74101;DHT22;62462;52.530;21.682;2023-12-29T13:10:31;10.60;71.00
74101;DHT22;62462;52.530;21.682;2023-12-29T13:12:57;10.60;71.30
74101;DHT22;62462;52.530;21.682;2023-12-29T13:15:23;10.70;70.80
74101;DHT22;62462;52.530;21.682;2023-12-29T13:17:55;10.70;70.80
74101;DHT22;62462;52.530;21.682;2023-12-29T13:20:21;10.60;71.00
74101;DHT22;62462;52.530;21.682;2023-12-29T13:22:50;10.60;71.60
74101;DHT22;62462;52.530;21.682;2023-12-29T13:25:35;10.50;71.80
74101;DHT22;62462;52.530;21.682;2023-12-29T13:28:01;10.60;72.00
74101;DHT22;62462;52.530;21.682;2023-12-29T13:30:28;10.60;71.90
74101;DHT22;62462;52.530;21.682;2023-12-29T13:32:55;10.60;71.90
74101;DHT22;62462;52.530;21.682;2023-12-29T13:38:09;10.60;71.80
74101;DHT22;62462;52.530;21.682;2023-12-29T13:40:43;10.70;71.70
74101;DHT22;62462;52.530;21.682;2023-12-29T13:43:12;10.70;71.60
74101;DHT22;62462;52.530;21.682;2023-12-29T13:45:41;10.70;71.60
74101;DHT22;62462;52.530;21.682;2023-12-29T13:48:08;10.70;71.50
74101;DHT22;62462;52.530;21.682;2023-12-29T13:50:34;10.70;71.50
74101;DHT22;62462;52.530;21.682;2023-12-29T13:53:00;10.80;71.30
74101;DHT22;62462;52.530;21.682;2023-12-29T13:55:26;10.60;70.90
74101;DHT22;62462;52.530;21.682;2023-12-29T13:57:52;10.70;71.20
74101;DHT22;62462;52.530;21.682;2023-12-29T14:00:23;10.70;71.30
74101;DHT22;62462;52.530;21.682;2023-12-29T14:05:30;10.60;71.60
74101;DHT22;62462;52.530;21.682;2023-12-29T14:10:30;10.50;71.90
74101;DHT22;62462;52.530;21.682;2023-12-29T14:13:16;10.60;72.00
74101;DHT22;62462;52.530;21.682;2023-12-29T14:15:44;10.50;72.10
74101;DHT22;62462;52.530;21.682;2023-12-29T14:20:41;10.60;72.00
74101;DHT22;62462;52.530;21.682;2023-12-29T14:23:07;10.60;71.40
74101;DHT22;62462;52.530;21.682;2023-12-29T14:25:34;10.70;71.50
74101;DHT22;62462;52.530;21.682;2023-12-29T14:28:03;10.60;71.20
74101;DHT22;62462;52.530;21.682;2023-12-29T14:30:29;10.60;71.30
74101;DHT22;62462;52.530;21.682;2023-12-29T14:32:59;10.60;71.50
74101;DHT22;62462;52.530;21.682;2023-12-29T14:35:25;10.60;71.30
74101;DHT22;62462;52.530;21.682;2023-12-29T14:37:51;10.60;71.20
74101;DHT22;62462;52.530;21.682;2023-12-29T14:40:17;10.60;71.20
74101;DHT22;62462;52.530;21.682;2023-12-29T14:42:42;10.50;71.50
74101;DHT22;62462;52.530;21.682;2023-12-29T14:45:09;10.50;71.50
74101;DHT22;62462;52.530;21.682;2023-12-29T14:47:35;10.50;71.40
74101;DHT22;62462;52.530;21.682;2023-12-29T14:50:01;10.60;71.30
74101;DHT22;62462;52.530;21.682;2023-12-29T14:52:27;10.60;71.20
74101;DHT22;62462;52.530;21.682;2023-12-29T14:54:52;10.60;70.90
74101;DHT22;62462;52.530;21.682;2023-12-29T14:57:18;10.60;70.90
74101;DHT22;62462;52.530;21.682;2023-12-29T14:59:44;10.60;70.90
74101;DHT22;62462;52.530;21.682;2023-12-29T15:02:09;10.60;70.90
74101;DHT22;62462;52.530;21.682;2023-12-29T15:04:35;10.60;70.70
74101;DHT22;62462;52.530;21.682;2023-12-29T15:07:02;10.60;71.00
74101;DHT22;62462;52.530;21.682;2023-12-29T15:09:28;10.60;71.10
74101;DHT22;62462;52.530;21.682;2023-12-29T15:11:54;10.60;70.90
74101;DHT22;62462;52.530;21.682;2023-12-29T15:14:20;10.50;71.30
74101;DHT22;62462;52.530;21.682;2023-12-29T15:16:46;10.60;71.20
74101;DHT22;62462;52.530;21.682;2023-12-29T15:19:12;10.70;71.00
74101;DHT22;62462;52.530;21.682;2023-12-29T15:21:38;10.70;70.60
74101;DHT22;62462;52.530;21.682;2023-12-29T15:24:07;10.70;70.40
74101;DHT22;62462;52.530;21.682;2023-12-29T15:26:33;10.70;70.60
74101;DHT22;62462;52.530;21.682;2023-12-29T15:28:59;10.80;70.50
74101;DHT22;62462;52.530;21.682;2023-12-29T15:31:25;10.80;70.10
74101;DHT22;62462;52.530;21.682;2023-12-29T15:33:51;10.80;70.10
74101;DHT22;62462;52.530;21.682;2023-12-29T15:36:18;10.70;70.20
74101;DHT22;62462;52.530;21.682;2023-12-29T15:38:49;10.70;71.30
74101;DHT22;62462;52.530;21.682;2023-12-29T15:41:15;10.70;70.50
74101;DHT22;62462;52.530;21.682;2023-12-29T15:43:41;10.70;70.50
74101;DHT22;62462;52.530;21.682;2023-12-29T15:46:32;10.60;70.70
74101;DHT22;62462;52.530;21.682;2023-12-29T15:48:58;10.60;70.90